Time;durP1;ratioP1;P1;durP2;ratioP2;P2;SDS_P1;SDS_P2;PMS_P1;PMS_P2;Temp;Humidity;BMP_temperature;BMP_pressure;BME280_temperature;BME280_humidity;BME280_pressure;Samples;Min_cycle;Max_cycle;Signal;HPM_P1;HPM_P2
2023/05/17 00:00:54;;;;;;;14.20;4.70;;;;;;;;;;5097285;28;20472;-59
2023/05/17 00:03:20;;;;;;;13.68;4.35;;;;;;;;;;5101904;28;20032;-60
2023/05/17 00:05:46;;;;;;;14.07;6.10;;;;;;;;;;5099821;28;20044;-60
2023/05/17 00:08:12;;;;;;;17.05;4.53;;;;;;;;;;5098661;28;20110;-60
2023/05/17 00:10:38;;;;;;;14.82;4.20;;;;;;;;;;5099765;28;20039;-60
2023/05/17 00:13:04;;;;;;;16.13;5.22;;;;;;;;;;5097949;28;20484;-59
2023/05/17 00:15:30;;;;;;;23.23;5.20;;;;;;;;;;5091862;28;20040;-59
2023/05/17 00:17:56;;;;;;;15.13;6.25;;;;;;;;;;5094329;28;20082;-60
2023/05/17 00:20:23;;;;;;;18.13;4.78;;;;;;;;;;5100301;28;20044;-62
2023/05/17 00:22:49;;;;;;;21.75;5.93;;;;;;;;;;5096602;28;20052;-60
2023/05/17 00:25:15;;;;;;;14.45;6.18;;;;;;;;;;5100144;28;20084;-59
2023/05/17 00:27:41;;;;;;;14.70;5.00;;;;;;;;;;5099260;28;20432;-60
2023/05/17 00:30:08;;;;;;;19.30;5.38;;;;;;;;;;5104410;28;20746;-60
2023/05/17 00:32:34;;;;;;;17.65;6.10;;;;;;;;;;5096373;28;20123;-59
2023/05/17 00:35:00;;;;;;;16.42;4.93;;;;;;;;;;5097544;28;20043;-59
2023/05/17 00:37:26;;;;;;;17.10;6.70;;;;;;;;;;5100747;28;20036;-58
2023/05/17 00:39:52;;;;;;;23.13;5.25;;;;;;;;;;5107862;28;20056;-59
2023/05/17 00:42:19;;;;;;;18.20;4.93;;;;;;;;;;5102057;28;20055;-59
2023/05/17 00:44:45;;;;;;;10.32;4.43;;;;;;;;;;5099278;28;20036;-59
2023/05/17 00:47:11;;;;;;;17.08;4.68;;;;;;;;;;5102141;28;20221;-59
2023/05/17 00:49:37;;;;;;;21.20;6.65;;;;;;;;;;5106511;28;20497;-59
2023/05/17 00:52:04;;;;;;;20.00;5.55;;;;;;;;;;5101790;28;20408;-59
2023/05/17 00:54:30;;;;;;;20.15;5.68;;;;;;;;;;5100832;28;20045;-59
2023/05/17 00:56:58;;;;;;;16.90;4.97;;;;;;;;;;5099798;28;20124;-59
2023/05/17 00:59:25;;;;;;;15.85;5.75;;;;;;;;;;5102937;28;20082;-59
2023/05/17 01:01:52;;;;;;;14.07;3.70;;;;;;;;;;5098585;28;20040;-59
2023/05/17 01:04:18;;;;;;;17.02;4.47;;;;;;;;;;5098633;28;20113;-59
2023/05/17 01:06:45;;;;;;;23.02;5.22;;;;;;;;;;5080523;28;20264;-59
2023/05/17 01:09:11;;;;;;;15.63;5.22;;;;;;;;;;5101245;28;20043;-59
2023/05/17 01:11:43;;;;;;;13.07;4.72;;;;;;;;;;5095645;28;20052;-59
2023/05/17 01:14:25;;;;;;;14.13;4.20;;;;;;;;;;5090727;28;20088;-59
2023/05/17 01:16:56;;;;;;;15.47;4.20;;;;;;;;;;5101137;28;20047;-59
2023/05/17 01:19:31;;;;;;;16.00;5.18;;;;;;;;;;5097002;28;20471;-59
2023/05/17 01:22:03;;;;;;;14.45;4.35;;;;;;;;;;5104662;28;20061;-59
2023/05/17 01:24:32;;;;;;;15.63;4.05;;;;;;;;;;5095136;28;20059;-59
2023/05/17 01:26:59;;;;;;;13.02;3.42;;;;;;;;;;5106625;28;20119;-59
2023/05/17 01:29:27;;;;;;;11.40;3.50;;;;;;;;;;5104021;28;20409;-59
2023/05/17 01:31:53;;;;;;;12.65;3.95;;;;;;;;;;5102553;28;20067;-59
2023/05/17 01:34:26;;;;;;;13.23;3.83;;;;;;;;;;5101908;28;20519;-59
2023/05/17 01:36:52;;;;;;;13.13;3.67;;;;;;;;;;5101049;28;20118;-59
2023/05/17 01:39:19;;;;;;;14.80;4.68;;;;;;;;;;5105788;28;20086;-59
2023/05/17 01:41:49;;;;;;;11.43;3.70;;;;;;;;;;5092190;28;20497;-59
2023/05/17 01:44:21;;;;;;;6.28;2.88;;;;;;;;;;5102615;28;20507;-59
2023/05/17 01:46:49;;;;;;;12.53;3.53;;;;;;;;;;5108793;28;20039;-59
2023/05/17 01:49:21;;;;;;;10.73;3.70;;;;;;;;;;5100427;28;20497;-59
2023/05/17 01:51:48;;;;;;;11.23;3.78;;;;;;;;;;5096481;28;20156;-59
2023/05/17 01:54:15;;;;;;;12.50;3.35;;;;;;;;;;5105473;28;20031;-59
2023/05/17 01:56:43;;;;;;;9.55;3.45;;;;;;;;;;5106410;28;20137;-59
2023/05/17 01:59:10;;;;;;;9.65;3.40;;;;;;;;;;5103736;28;20069;-59
2023/05/17 02:01:38;;;;;;;5.75;2.95;;;;;;;;;;5106157;28;20066;-59
2023/05/17 02:04:04;;;;;;;7.00;3.53;;;;;;;;;;5107535;28;20074;-59
2023/05/17 02:06:30;;;;;;;8.98;3.00;;;;;;;;;;5101050;28;20394;-59
2023/05/17 02:08:59;;;;;;;6.97;2.83;;;;;;;;;;5099814;28;20486;-59
2023/05/17 02:11:25;;;;;;;11.45;4.28;;;;;;;;;;5101544;28;20036;-59
2023/05/17 02:13:52;;;;;;;7.55;2.97;;;;;;;;;;5095607;28;20039;-59
2023/05/17 02:16:18;;;;;;;7.10;2.88;;;;;;;;;;5100024;28;20069;-59
2023/05/17 02:18:44;;;;;;;10.05;3.45;;;;;;;;;;5094477;28;20040;-59
2023/05/17 02:21:12;;;;;;;7.88;2.92;;;;;;;;;;5104741;28;20047;-59
2023/05/17 02:23:38;;;;;;;10.70;2.78;;;;;;;;;;5099169;28;20383;-59
2023/05/17 02:26:04;;;;;;;12.68;3.05;;;;;;;;;;5102699;28;20062;-59
2023/05/17 02:28:30;;;;;;;8.65;2.88;;;;;;;;;;5098749;28;20039;-59
2023/05/17 02:30:57;;;;;;;8.43;2.72;;;;;;;;;;5100111;28;20042;-58
2023/05/17 02:33:23;;;;;;;8.27;2.67;;;;;;;;;;5100669;28;20040;-59
2023/05/17 02:35:49;;;;;;;6.55;2.67;;;;;;;;;;5098037;28;20477;-59
2023/05/17 02:38:15;;;;;;;7.45;3.38;;;;;;;;;;5100394;28;20058;-59
2023/05/17 02:40:41;;;;;;;10.13;3.20;;;;;;;;;;5108008;28;20056;-59
2023/05/17 02:43:07;;;;;;;8.00;2.83;;;;;;;;;;5106294;28;20035;-58
2023/05/17 02:45:34;;;;;;;13.07;4.15;;;;;;;;;;5099383;28;20502;-59
2023/05/17 02:48:00;;;;;;;14.07;4.70;;;;;;;;;;5105054;28;20139;-59
2023/05/17 02:50:26;;;;;;;7.85;3.58;;;;;;;;;;5101341;28;20062;-59
2023/05/17 02:52:52;;;;;;;8.73;3.20;;;;;;;;;;5105953;28;20530;-59
2023/05/17 02:55:19;;;;;;;13.05;4.03;;;;;;;;;;5092649;28;20044;-59
2023/05/17 02:57:45;;;;;;;14.63;4.35;;;;;;;;;;5098240;28;20088;-58
2023/05/17 03:00:11;;;;;;;10.52;3.97;;;;;;;;;;5109749;28;20140;-59
2023/05/17 03:02:37;;;;;;;8.27;3.85;;;;;;;;;;5105467;27;20536;-59
2023/05/17 03:05:03;;;;;;;9.55;3.05;;;;;;;;;;5093265;28;20040;-59
2023/05/17 03:07:30;;;;;;;13.07;3.50;;;;;;;;;;5098697;28;20038;-59
2023/05/17 03:09:56;;;;;;;9.45;2.83;;;;;;;;;;5081070;28;20110;-59
2023/05/17 03:12:22;;;;;;;11.00;3.90;;;;;;;;;;5101328;28;20476;-59
2023/05/17 03:14:48;;;;;;;15.88;3.80;;;;;;;;;;5092422;28;20035;-59
2023/05/17 03:17:14;;;;;;;12.20;3.88;;;;;;;;;;5105705;28;20043;-59
2023/05/17 03:19:40;;;;;;;13.55;3.40;;;;;;;;;;5105469;28;20177;-57
2023/05/17 03:22:06;;;;;;;7.03;2.80;;;;;;;;;;5098448;28;20057;-60
2023/05/17 03:24:32;;;;;;;16.30;4.95;;;;;;;;;;5092813;28;20040;-59
2023/05/17 03:26:59;;;;;;;10.10;2.33;;;;;;;;;;5103966;28;20035;-59
2023/05/17 03:29:25;;;;;;;7.95;2.80;;;;;;;;;;5094214;28;20043;-59
2023/05/17 03:31:51;;;;;;;9.55;3.33;;;;;;;;;;5102727;28;20088;-60
2023/05/17 03:34:17;;;;;;;11.88;2.70;;;;;;;;;;5091114;28;20028;-60
2023/05/17 03:36:43;;;;;;;14.55;3.75;;;;;;;;;;5062356;28;20042;-59
2023/05/17 03:39:09;;;;;;;10.18;2.83;;;;;;;;;;5093333;28;20063;-60
2023/05/17 03:41:35;;;;;;;4.65;2.05;;;;;;;;;;5095410;28;20036;-59
2023/05/17 03:44:02;;;;;;;6.80;2.53;;;;;;;;;;5089694;28;20538;-60
2023/05/17 03:46:28;;;;;;;7.70;2.38;;;;;;;;;;5096489;28;20061;-60
2023/05/17 03:48:54;;;;;;;7.13;2.95;;;;;;;;;;5107348;28;20369;-59
2023/05/17 03:51:20;;;;;;;9.45;2.53;;;;;;;;;;5094587;28;20046;-58
2023/05/17 03:53:46;;;;;;;8.05;2.70;;;;;;;;;;5096681;28;20031;-58
2023/05/17 03:56:12;;;;;;;8.90;2.90;;;;;;;;;;5102361;28;20086;-58
2023/05/17 03:58:39;;;;;;;7.40;2.42;;;;;;;;;;5098782;27;20067;-60
2023/05/17 04:01:05;;;;;;;7.18;2.58;;;;;;;;;;5095107;28;20353;-58
2023/05/17 04:03:31;;;;;;;5.10;1.80;;;;;;;;;;5098153;28;20044;-58
2023/05/17 04:06:05;;;;;;;6.80;3.08;;;;;;;;;;5099579;28;20040;-58
2023/05/17 04:08:32;;;;;;;7.70;2.72;;;;;;;;;;5101986;28;20090;-58
2023/05/17 04:11:00;;;;;;;6.03;2.10;;;;;;;;;;5101398;28;20063;-58
2023/05/17 04:13:26;;;;;;;6.82;2.45;;;;;;;;;;5099512;28;20473;-61
2023/05/17 04:15:52;;;;;;;6.68;3.03;;;;;;;;;;5097267;28;20047;-58
2023/05/17 04:18:18;;;;;;;6.68;2.70;;;;;;;;;;5090582;28;20044;-59
2023/05/17 04:20:45;;;;;;;4.30;2.20;;;;;;;;;;5100456;28;20489;-58
2023/05/17 04:23:11;;;;;;;7.85;3.20;;;;;;;;;;5101956;28;20051;-58
2023/05/17 04:25:37;;;;;;;10.40;2.78;;;;;;;;;;5096520;28;20032;-58
2023/05/17 04:28:04;;;;;;;7.82;1.90;;;;;;;;;;5090135;28;20114;-59
2023/05/17 04:30:30;;;;;;;9.98;3.13;;;;;;;;;;5097720;28;20169;-58
2023/05/17 04:32:57;;;;;;;9.90;2.63;;;;;;;;;;5095014;28;20051;-59
2023/05/17 04:35:23;;;;;;;9.50;2.63;;;;;;;;;;5099365;28;20264;-59
2023/05/17 04:37:50;;;;;;;8.82;2.22;;;;;;;;;;5099011;28;20093;-59
2023/05/17 04:40:16;;;;;;;8.10;2.97;;;;;;;;;;5097704;28;20036;-58
2023/05/17 04:42:42;;;;;;;9.05;2.40;;;;;;;;;;5096826;28;20370;-59
2023/05/17 04:45:09;;;;;;;4.45;2.25;;;;;;;;;;5089994;28;20101;-59
2023/05/17 04:47:36;;;;;;;10.27;3.20;;;;;;;;;;5102181;28;20036;-59
2023/05/17 04:50:03;;;;;;;9.00;2.38;;;;;;;;;;5107022;28;20167;-59
2023/05/17 04:52:29;;;;;;;11.07;2.55;;;;;;;;;;5099721;28;20714;-59
2023/05/17 04:54:56;;;;;;;5.43;2.05;;;;;;;;;;5106971;28;20400;-59
2023/05/17 04:57:22;;;;;;;9.65;2.95;;;;;;;;;;5102957;28;20512;-59
2023/05/17 04:59:48;;;;;;;6.50;3.00;;;;;;;;;;5105492;28;20083;-61
2023/05/17 05:02:14;;;;;;;8.68;3.28;;;;;;;;;;5100112;28;20774;-61
2023/05/17 05:04:40;;;;;;;9.45;2.88;;;;;;;;;;5099401;28;20036;-60
2023/05/17 05:07:06;;;;;;;7.53;2.80;;;;;;;;;;5100035;28;20031;-62
2023/05/17 05:09:32;;;;;;;5.38;2.78;;;;;;;;;;5100119;28;20492;-60
2023/05/17 05:11:58;;;;;;;10.77;3.03;;;;;;;;;;5107600;28;20040;-60
2023/05/17 05:14:25;;;;;;;7.00;2.55;;;;;;;;;;5094851;28;20040;-63
2023/05/17 05:16:51;;;;;;;8.38;2.80;;;;;;;;;;5094346;28;20081;-60
2023/05/17 05:19:17;;;;;;;6.82;2.45;;;;;;;;;;5066157;28;20397;-61
2023/05/17 05:21:46;;;;;;;12.65;2.83;;;;;;;;;;5072899;28;20059;-61
2023/05/17 05:24:12;;;;;;;8.60;2.60;;;;;;;;;;5098155;28;20075;-60
2023/05/17 05:26:39;;;;;;;6.93;2.75;;;;;;;;;;5100497;28;20040;-61
2023/05/17 05:29:05;;;;;;;6.80;2.33;;;;;;;;;;5100339;28;20067;-61
2023/05/17 05:31:31;;;;;;;6.80;2.72;;;;;;;;;;5095954;28;20044;-59
2023/05/17 05:33:57;;;;;;;9.48;2.55;;;;;;;;;;5095684;28;20505;-59
2023/05/17 05:36:23;;;;;;;5.45;2.22;;;;;;;;;;5100971;28;20493;-59
2023/05/17 05:38:52;;;;;;;10.30;2.95;;;;;;;;;;5096501;28;20126;-59
2023/05/17 05:41:18;;;;;;;15.27;3.80;;;;;;;;;;5095206;28;20052;-59
2023/05/17 05:43:44;;;;;;;7.68;3.28;;;;;;;;;;5107659;28;20040;-60
2023/05/17 05:46:11;;;;;;;11.48;3.60;;;;;;;;;;5104582;28;20482;-60
2023/05/17 05:48:40;;;;;;;12.02;3.17;;;;;;;;;;5095198;28;20046;-59
2023/05/17 05:51:06;;;;;;;14.50;4.38;;;;;;;;;;5105427;28;20118;-59
2023/05/17 05:53:33;;;;;;;12.13;3.45;;;;;;;;;;5096077;28;20116;-59
2023/05/17 05:55:59;;;;;;;10.50;3.33;;;;;;;;;;5097154;28;20028;-60
2023/05/17 05:58:25;;;;;;;10.68;4.07;;;;;;;;;;5103331;28;20044;-60
2023/05/17 06:00:51;;;;;;;12.57;3.08;;;;;;;;;;5098569;28;20040;-60
2023/05/17 06:03:17;;;;;;;12.80;3.90;;;;;;;;;;5104643;28;20122;-60
2023/05/17 06:05:44;;;;;;;9.00;3.53;;;;;;;;;;5094905;28;20488;-60
2023/05/17 06:08:10;;;;;;;22.70;4.57;;;;;;;;;;5095810;28;20036;-59
2023/05/17 06:10:36;;;;;;;11.18;3.40;;;;;;;;;;5099415;28;20074;-60
2023/05/17 06:13:02;;;;;;;21.52;4.13;;;;;;;;;;5089512;28;20520;-60
2023/05/17 06:15:28;;;;;;;14.95;3.22;;;;;;;;;;5088231;28;20074;-60
2023/05/17 06:17:54;;;;;;;10.10;3.55;;;;;;;;;;5089080;28;20040;-60
2023/05/17 06:20:21;;;;;;;9.30;3.50;;;;;;;;;;5099008;28;20047;-60
2023/05/17 06:22:47;;;;;;;16.13;3.80;;;;;;;;;;5100646;28;20052;-60
2023/05/17 06:25:13;;;;;;;21.17;4.65;;;;;;;;;;5097099;28;20040;-59
2023/05/17 06:27:39;;;;;;;10.73;3.67;;;;;;;;;;5078591;28;20418;-59
2023/05/17 06:30:06;;;;;;;14.15;4.43;;;;;;;;;;5105117;28;20040;-59
2023/05/17 06:32:32;;;;;;;14.48;4.90;;;;;;;;;;5091518;28;20300;-61
2023/05/17 06:34:58;;;;;;;12.30;4.28;;;;;;;;;;5096870;28;20066;-59
2023/05/17 06:37:24;;;;;;;12.88;3.10;;;;;;;;;;5078595;28;20050;-59
2023/05/17 06:39:51;;;;;;;13.10;4.00;;;;;;;;;;5096051;28;20044;-60
2023/05/17 06:42:17;;;;;;;9.63;3.47;;;;;;;;;;5094508;28;20078;-59
2023/05/17 06:44:43;;;;;;;11.40;3.42;;;;;;;;;;5100645;28;20084;-59
2023/05/17 06:47:09;;;;;;;14.70;3.80;;;;;;;;;;5099289;28;20400;-59
2023/05/17 06:49:37;;;;;;;12.00;3.40;;;;;;;;;;5100182;28;20043;-59
2023/05/17 06:52:04;;;;;;;11.45;3.63;;;;;;;;;;5102583;28;20602;-60
2023/05/17 06:54:31;;;;;;;15.02;3.75;;;;;;;;;;5101808;28;20044;-60
2023/05/17 06:57:03;;;;;;;6.97;3.00;;;;;;;;;;5098699;28;20137;-58
2023/05/17 06:59:29;;;;;;;15.35;3.75;;;;;;;;;;5100250;28;20079;-58
2023/05/17 07:01:56;;;;;;;17.00;4.88;;;;;;;;;;5099940;28;20406;-59
2023/05/17 07:04:22;;;;;;;9.35;2.20;;;;;;;;;;5099168;28;20834;-58
2023/05/17 07:06:48;;;;;;;15.60;3.47;;;;;;;;;;5091843;28;20036;-59
2023/05/17 07:09:14;;;;;;;7.88;3.10;;;;;;;;;;5096002;28;20032;-59
2023/05/17 07:11:40;;;;;;;10.32;3.08;;;;;;;;;;5090482;28;20085;-58
2023/05/17 07:14:06;;;;;;;10.73;2.97;;;;;;;;;;5101437;28;20080;-59
2023/05/17 07:16:33;;;;;;;9.70;3.35;;;;;;;;;;5095801;28;20116;-59
2023/05/17 07:18:59;;;;;;;13.38;3.28;;;;;;;;;;5098870;28;20042;-59
2023/05/17 07:21:25;;;;;;;9.80;3.17;;;;;;;;;;5091484;28;20063;-59
2023/05/17 07:23:51;;;;;;;10.63;3.00;;;;;;;;;;5095044;28;20127;-59
2023/05/17 07:26:21;;;;;;;7.30;3.22;;;;;;;;;;5102586;28;20039;-58
2023/05/17 07:28:47;;;;;;;12.38;3.80;;;;;;;;;;5089632;28;20046;-59
2023/05/17 07:31:14;;;;;;;15.02;4.03;;;;;;;;;;5093241;28;20453;-59
2023/05/17 07:33:40;;;;;;;8.45;3.20;;;;;;;;;;5093382;28;20051;-59
2023/05/17 07:36:06;;;;;;;9.32;3.15;;;;;;;;;;5100609;28;20591;-58
2023/05/17 07:38:36;;;;;;;9.88;2.78;;;;;;;;;;5095891;28;20040;-59
2023/05/17 07:41:08;;;;;;;11.35;3.90;;;;;;;;;;5086201;28;20079;-58
2023/05/17 07:43:37;;;;;;;7.03;3.40;;;;;;;;;;5093343;28;20039;-59
2023/05/17 07:46:03;;;;;;;11.73;3.53;;;;;;;;;;5098355;28;20053;-59
2023/05/17 07:48:30;;;;;;;6.97;3.25;;;;;;;;;;5094897;28;20115;-59
2023/05/17 07:50:56;;;;;;;10.43;3.55;;;;;;;;;;5085736;28;20039;-60
2023/05/17 07:53:22;;;;;;;10.02;3.15;;;;;;;;;;5096323;28;20415;-59
2023/05/17 07:55:48;;;;;;;9.80;4.18;;;;;;;;;;5099147;28;20476;-59
2023/05/17 07:58:15;;;;;;;10.02;3.38;;;;;;;;;;5094073;28;20054;-58
2023/05/17 08:00:41;;;;;;;14.25;4.15;;;;;;;;;;5086416;28;20139;-59
2023/05/17 08:03:07;;;;;;;12.05;4.03;;;;;;;;;;5099799;28;20492;-59
2023/05/17 08:05:33;;;;;;;12.13;3.92;;;;;;;;;;5093282;28;20040;-58
2023/05/17 08:08:00;;;;;;;16.52;5.05;;;;;;;;;;5095291;28;20434;-59
2023/05/17 08:10:26;;;;;;;7.65;3.08;;;;;;;;;;5094271;28;20067;-59
2023/05/17 08:12:53;;;;;;;9.20;3.50;;;;;;;;;;5091846;28;20441;-59
2023/05/17 08:15:20;;;;;;;10.70;4.03;;;;;;;;;;5093018;28;20120;-59
2023/05/17 08:17:46;;;;;;;11.07;4.95;;;;;;;;;;5088406;28;20090;-59
2023/05/17 08:20:12;;;;;;;9.27;3.58;;;;;;;;;;5091588;28;20056;-59
2023/05/17 08:22:39;;;;;;;13.27;3.03;;;;;;;;;;5099641;28;20048;-59
2023/05/17 08:25:05;;;;;;;10.50;3.30;;;;;;;;;;5090155;28;20051;-59
2023/05/17 08:27:31;;;;;;;8.57;2.78;;;;;;;;;;5090119;28;20036;-59
2023/05/17 08:29:58;;;;;;;10.63;3.28;;;;;;;;;;5094850;28;20097;-59
2023/05/17 08:32:25;;;;;;;8.52;2.70;;;;;;;;;;5095320;28;20048;-59
2023/05/17 08:34:51;;;;;;;7.93;2.92;;;;;;;;;;5085722;28;20137;-59
2023/05/17 08:37:18;;;;;;;9.82;2.78;;;;;;;;;;5096676;28;20131;-59
2023/05/17 08:39:44;;;;;;;10.20;3.08;;;;;;;;;;5096787;28;20074;-59
2023/05/17 08:42:10;;;;;;;16.05;3.70;;;;;;;;;;5094738;28;20047;-59
2023/05/17 08:44:37;;;;;;;11.32;3.88;;;;;;;;;;5091996;28;20084;-59
2023/05/17 08:47:03;;;;;;;8.93;3.75;;;;;;;;;;5088521;28;20092;-59
2023/05/17 08:49:36;;;;;;;10.32;3.05;;;;;;;;;;5092550;28;20075;-59
2023/05/17 08:52:08;;;;;;;9.90;3.03;;;;;;;;;;5094588;28;20127;-59
2023/05/17 08:54:35;;;;;;;10.93;3.00;;;;;;;;;;5088529;28;20497;-59
2023/05/17 08:57:05;;;;;;;6.82;2.83;;;;;;;;;;5075633;28;20124;-59
2023/05/17 08:59:32;;;;;;;7.15;2.35;;;;;;;;;;5096507;28;20070;-59
2023/05/17 09:01:58;;;;;;;12.00;2.80;;;;;;;;;;5091218;28;20055;-59
2023/05/17 09:04:25;;;;;;;9.75;3.00;;;;;;;;;;5092784;28;20039;-59
2023/05/17 09:06:51;;;;;;;9.75;2.83;;;;;;;;;;5088450;28;20147;-59
2023/05/17 09:09:17;;;;;;;5.00;2.50;;;;;;;;;;5096609;28;20063;-59
2023/05/17 09:11:44;;;;;;;4.95;2.55;;;;;;;;;;5094436;28;20090;-59
2023/05/17 09:14:10;;;;;;;9.77;3.88;;;;;;;;;;5094626;28;20043;-59
2023/05/17 09:16:37;;;;;;;9.63;2.45;;;;;;;;;;5089229;28;20050;-60
2023/05/17 09:19:04;;;;;;;8.73;2.53;;;;;;;;;;5094028;28;20043;-60
2023/05/17 09:21:31;;;;;;;5.78;2.45;;;;;;;;;;5072184;28;20090;-60
2023/05/17 09:23:59;;;;;;;6.95;2.70;;;;;;;;;;5069728;28;20051;-59
2023/05/17 09:26:25;;;;;;;9.02;3.03;;;;;;;;;;5086188;28;20071;-59
2023/05/17 09:28:52;;;;;;;7.43;2.65;;;;;;;;;;5091614;28;20050;-59
2023/05/17 09:31:18;;;;;;;12.02;2.70;;;;;;;;;;5073653;28;20040;-59
2023/05/17 09:33:50;;;;;;;5.80;2.33;;;;;;;;;;5092666;28;20482;-59
2023/05/17 09:36:21;;;;;;;11.63;2.67;;;;;;;;;;5083380;28;20409;-60
2023/05/17 09:38:58;;;;;;;14.80;2.97;;;;;;;;;;5094785;28;20100;-60
2023/05/17 09:41:27;;;;;;;11.75;2.67;;;;;;;;;;5094553;28;20040;-59
2023/05/17 09:43:57;;;;;;;8.73;2.53;;;;;;;;;;5087709;28;20043;-60
2023/05/17 09:46:23;;;;;;;5.35;2.35;;;;;;;;;;5093990;28;20040;-59
2023/05/17 09:48:53;;;;;;;9.60;3.75;;;;;;;;;;5084730;28;20044;-59
2023/05/17 09:51:19;;;;;;;7.03;2.53;;;;;;;;;;5091996;28;20036;-59
2023/05/17 09:53:45;;;;;;;7.60;2.15;;;;;;;;;;5074922;28;20032;-59
2023/05/17 09:56:12;;;;;;;9.85;2.65;;;;;;;;;;5092732;28;20044;-60
2023/05/17 09:58:38;;;;;;;7.88;2.58;;;;;;;;;;5082401;28;20520;-60
2023/05/17 10:01:06;;;;;;;8.32;2.70;;;;;;;;;;5094586;28;20081;-68
2023/05/17 10:03:32;;;;;;;7.38;2.70;;;;;;;;;;5098451;28;20117;-70
2023/05/17 10:06:00;;;;;;;10.80;3.55;;;;;;;;;;5095872;28;20480;-69
2023/05/17 10:08:28;;;;;;;9.15;2.75;;;;;;;;;;5088040;27;20577;-68
2023/05/17 10:10:56;;;;;;;6.45;2.15;;;;;;;;;;5098333;27;20354;-69
2023/05/17 10:13:24;;;;;;;8.32;2.45;;;;;;;;;;5095786;28;20051;-69
2023/05/17 10:15:51;;;;;;;7.03;2.58;;;;;;;;;;5086745;28;20086;-69
2023/05/17 10:18:17;;;;;;;11.90;3.85;;;;;;;;;;5087342;28;20087;-69
2023/05/17 10:20:44;;;;;;;6.88;3.58;;;;;;;;;;5096766;28;20052;-70
2023/05/17 10:23:11;;;;;;;8.27;2.63;;;;;;;;;;5075968;28;20039;-70
2023/05/17 10:25:37;;;;;;;5.88;2.05;;;;;;;;;;5092186;28;20512;-68
2023/05/17 10:28:06;;;;;;;9.27;3.10;;;;;;;;;;5088197;28;20173;-68
2023/05/17 10:30:33;;;;;;;7.43;3.88;;;;;;;;;;5094017;28;20047;-68
2023/05/17 10:33:00;;;;;;;8.30;3.30;;;;;;;;;;5088146;27;20236;-69
2023/05/17 10:35:27;;;;;;;13.98;4.13;;;;;;;;;;5096643;28;20493;-68
2023/05/17 10:37:53;;;;;;;9.60;2.83;;;;;;;;;;5097279;28;20156;-67
2023/05/17 10:40:22;;;;;;;7.07;3.40;;;;;;;;;;5093759;28;20130;-68
2023/05/17 10:42:52;;;;;;;19.33;4.03;;;;;;;;;;5097300;28;20671;-68
2023/05/17 10:45:21;;;;;;;12.98;3.17;;;;;;;;;;5086024;28;20127;-68
2023/05/17 10:47:50;;;;;;;7.13;2.80;;;;;;;;;;5088329;28;20067;-68
2023/05/17 10:50:21;;;;;;;9.40;3.50;;;;;;;;;;5096726;28;20070;-69
2023/05/17 10:52:47;;;;;;;11.02;3.20;;;;;;;;;;5094050;28;20035;-67
2023/05/17 10:55:17;;;;;;;9.48;3.38;;;;;;;;;;5070696;28;20530;-67
2023/05/17 10:57:43;;;;;;;15.55;3.13;;;;;;;;;;5089307;28;20048;-68
2023/05/17 11:00:19;;;;;;;9.77;3.10;;;;;;;;;;5074258;28;20074;-67
2023/05/17 11:02:47;;;;;;;8.13;2.92;;;;;;;;;;5081347;28;20043;-70
2023/05/17 11:05:26;;;;;;;15.00;3.08;;;;;;;;;;5100719;28;20705;-68
2023/05/17 11:07:53;;;;;;;4.75;2.28;;;;;;;;;;5105763;28;20063;-68
2023/05/17 11:10:19;;;;;;;9.95;3.67;;;;;;;;;;5099347;28;20600;-69
2023/05/17 11:12:52;;;;;;;16.08;4.82;;;;;;;;;;5097751;28;20039;-70
2023/05/17 11:15:22;;;;;;;7.63;3.53;;;;;;;;;;5091829;28;20073;-69
2023/05/17 11:17:52;;;;;;;9.90;3.72;;;;;;;;;;5093842;28;20521;-68
2023/05/17 11:20:25;;;;;;;10.45;3.92;;;;;;;;;;5100440;28;20465;-68
2023/05/17 11:22:58;;;;;;;7.10;3.35;;;;;;;;;;5094829;28;20133;-69
2023/05/17 11:25:27;;;;;;;5.25;2.63;;;;;;;;;;5095822;28;20071;-69
2023/05/17 11:27:54;;;;;;;12.07;3.47;;;;;;;;;;5101062;28;20146;-68
2023/05/17 11:30:25;;;;;;;12.23;3.03;;;;;;;;;;5103930;28;20051;-69
2023/05/17 11:32:53;;;;;;;6.50;3.20;;;;;;;;;;5100262;28;20062;-68
2023/05/17 11:35:22;;;;;;;16.20;3.55;;;;;;;;;;5096801;28;20480;-70
2023/05/17 11:37:51;;;;;;;6.90;2.63;;;;;;;;;;5096817;28;20079;-69
2023/05/17 11:40:24;;;;;;;11.98;3.22;;;;;;;;;;5101503;28;20109;-69
2023/05/17 11:42:50;;;;;;;;;;;;;;;;;;5095652;28;20047;-69
2023/05/17 11:45:17;;;;;;;7.03;2.90;;;;;;;;;;5095338;28;19943;-70
2023/05/17 11:47:47;;;;;;;10.25;2.78;;;;;;;;;;5096726;28;20044;-68
2023/05/17 11:50:15;;;;;;;7.80;3.65;;;;;;;;;;5103560;28;20040;-69
2023/05/17 11:52:41;;;;;;;14.10;3.08;;;;;;;;;;5095517;28;20439;-68
2023/05/17 11:55:07;;;;;;;11.52;3.00;;;;;;;;;;5101397;28;20077;-70
2023/05/17 11:57:33;;;;;;;7.97;2.78;;;;;;;;;;5097662;28;20117;-69
2023/05/17 12:00:04;;;;;;;8.93;2.72;;;;;;;;;;5097704;28;20036;-67
2023/05/17 12:02:31;;;;;;;8.85;3.22;;;;;;;;;;5093823;28;20046;-69
2023/05/17 12:04:57;;;;;;;10.98;3.42;;;;;;;;;;5093270;28;20032;-68
2023/05/17 12:07:24;;;;;;;8.07;2.63;;;;;;;;;;5098782;28;20050;-68
2023/05/17 12:09:51;;;;;;;8.05;2.75;;;;;;;;;;5094477;28;20044;-68
2023/05/17 12:12:20;;;;;;;4.95;2.33;;;;;;;;;;5099800;28;20094;-70
2023/05/17 12:14:47;;;;;;;8.02;2.63;;;;;;;;;;5103769;28;20039;-70
2023/05/17 12:17:20;;;;;;;7.18;2.65;;;;;;;;;;5099879;28;20044;-69
2023/05/17 12:19:46;;;;;;;5.35;2.38;;;;;;;;;;5096343;28;20085;-69
2023/05/17 12:22:12;;;;;;;6.57;2.15;;;;;;;;;;5102789;28;20059;-69
2023/05/17 12:24:42;;;;;;;7.65;3.45;;;;;;;;;;5106495;28;20074;-69
2023/05/17 12:27:08;;;;;;;7.60;3.13;;;;;;;;;;5091485;28;20057;-69
2023/05/17 12:29:35;;;;;;;6.70;3.08;;;;;;;;;;5092879;28;20112;-69
2023/05/17 12:32:01;;;;;;;10.10;2.47;;;;;;;;;;5098849;28;20035;-69
2023/05/17 12:34:28;;;;;;;7.85;2.20;;;;;;;;;;5099060;28;20043;-69
2023/05/17 12:36:55;;;;;;;9.38;2.55;;;;;;;;;;5097740;28;20047;-69
2023/05/17 12:39:24;;;;;;;6.90;2.83;;;;;;;;;;5096594;28;20513;-69
2023/05/17 12:41:51;;;;;;;9.65;2.58;;;;;;;;;;5092002;28;20591;-69
2023/05/17 12:44:19;;;;;;;7.10;2.40;;;;;;;;;;5099765;28;20432;-70
2023/05/17 12:46:49;;;;;;;9.77;2.42;;;;;;;;;;5104368;28;20068;-70
2023/05/17 12:49:15;;;;;;;7.80;2.90;;;;;;;;;;5095815;28;20040;-69
2023/05/17 12:51:42;;;;;;;10.45;2.75;;;;;;;;;;5099666;28;20122;-69
2023/05/17 12:54:08;;;;;;;6.57;2.35;;;;;;;;;;5101523;28;20040;-69
2023/05/17 12:56:35;;;;;;;8.30;2.72;;;;;;;;;;5101358;28;20058;-70
2023/05/17 12:59:05;;;;;;;6.63;2.25;;;;;;;;;;5098928;28;20035;-69
2023/05/17 13:01:44;;;;;;;4.75;2.58;;;;;;;;;;5102500;28;20379;-69
2023/05/17 13:04:10;;;;;;;12.30;2.80;;;;;;;;;;5099799;28;20051;-69
2023/05/17 13:06:44;;;;;;;11.68;2.63;;;;;;;;;;5100824;28;20606;-69
2023/05/17 13:09:10;;;;;;;9.27;2.45;;;;;;;;;;5098129;28;20035;-69
2023/05/17 13:11:40;;;;;;;5.60;2.53;;;;;;;;;;5100570;28;20051;-68
2023/05/17 13:14:09;;;;;;;6.00;1.83;;;;;;;;;;5100374;28;20040;-67
2023/05/17 13:16:39;;;;;;;5.97;2.30;;;;;;;;;;5090546;28;20439;-70
2023/05/17 13:19:12;;;;;;;8.00;2.00;;;;;;;;;;5102190;28;20415;-70
2023/05/17 13:21:38;;;;;;;5.50;2.53;;;;;;;;;;5099015;28;20083;-69
2023/05/17 13:24:05;;;;;;;7.30;2.53;;;;;;;;;;5100593;28;20381;-71
2023/05/17 13:26:31;;;;;;;7.43;2.50;;;;;;;;;;5098879;28;20086;-71
2023/05/17 13:28:57;;;;;;;7.20;2.40;;;;;;;;;;5100936;28;20342;-71
2023/05/17 13:31:23;;;;;;;7.38;2.80;;;;;;;;;;5098460;28;20039;-71
2023/05/17 13:33:50;;;;;;;5.47;2.40;;;;;;;;;;5102079;28;20150;-71
2023/05/17 13:36:16;;;;;;;5.28;2.45;;;;;;;;;;5099474;28;20546;-71
2023/05/17 13:38:43;;;;;;;3.28;1.88;;;;;;;;;;5100373;28;20039;-71
2023/05/17 13:41:09;;;;;;;7.28;2.40;;;;;;;;;;5102084;28;20032;-70
2023/05/17 13:43:36;;;;;;;9.10;3.08;;;;;;;;;;5098447;28;20078;-71
2023/05/17 13:46:02;;;;;;;20.55;3.45;;;;;;;;;;5100062;28;20428;-64
2023/05/17 13:48:29;;;;;;;7.28;2.67;;;;;;;;;;5105703;28;20517;-65
2023/05/17 13:50:55;;;;;;;7.53;2.30;;;;;;;;;;5102907;27;20182;-65
2023/05/17 13:53:21;;;;;;;6.32;2.38;;;;;;;;;;5104410;28;20122;-66
2023/05/17 13:55:48;;;;;;;9.52;2.55;;;;;;;;;;5099140;28;20167;-66
2023/05/17 13:58:15;;;;;;;8.98;2.83;;;;;;;;;;5105788;28;20126;-65
2023/05/17 14:00:43;;;;;;;7.55;2.15;;;;;;;;;;5102939;28;20409;-66
2023/05/17 14:03:09;;;;;;;6.15;2.63;;;;;;;;;;5101962;28;20470;-66
2023/05/17 14:05:36;;;;;;;9.13;2.55;;;;;;;;;;5098948;28;20063;-67
2023/05/17 14:08:02;;;;;;;10.38;2.88;;;;;;;;;;5096658;28;20051;-67
2023/05/17 14:10:29;;;;;;;14.95;2.47;;;;;;;;;;5099825;28;20118;-67
2023/05/17 14:12:55;;;;;;;10.60;2.90;;;;;;;;;;5097417;28;20102;-64
2023/05/17 14:15:21;;;;;;;11.40;3.38;;;;;;;;;;5097721;28;20128;-64
2023/05/17 14:17:48;;;;;;;15.10;2.78;;;;;;;;;;5098493;27;20040;-67
2023/05/17 14:20:15;;;;;;;9.30;3.10;;;;;;;;;;5099223;28;20102;-65
2023/05/17 14:22:41;;;;;;;6.43;1.98;;;;;;;;;;5078924;28;20069;-65
2023/05/17 14:25:08;;;;;;;4.63;1.63;;;;;;;;;;5091868;28;20123;-65
2023/05/17 14:27:34;;;;;;;9.93;2.72;;;;;;;;;;5095988;28;20048;-64
2023/05/17 14:30:00;;;;;;;9.02;2.88;;;;;;;;;;5098107;28;20081;-65
2023/05/17 14:32:27;;;;;;;10.35;2.33;;;;;;;;;;5092959;28;20055;-66
2023/05/17 14:34:53;;;;;;;9.70;2.60;;;;;;;;;;5098087;28;20040;-66
2023/05/17 14:37:20;;;;;;;5.32;2.38;;;;;;;;;;5100701;28;20465;-66